sensor_id;sensor_type;location;lat;lon;timestamp;P1;durP1;ratioP1;P2;durP2;ratioP2
15216;SDS011;7711;46.634;14.318;2022-12-07T00:02:00;7.23;;;5.63;;
15216;SDS011;7711;46.634;14.318;2022-12-07T00:04:27;8.93;;;5.07;;
15216;SDS011;7711;46.634;14.318;2022-12-07T00:06:54;7.80;;;5.77;;
15216;SDS011;7711;46.634;14.318;2022-12-07T00:09:21;6.90;;;5.50;;
15216;SDS011;7711;46.634;14.318;2022-12-07T00:11:48;8.03;;;5.63;;
15216;SDS011;7711;46.634;14.318;2022-12-07T00:14:18;9.13;;;6.30;;
15216;SDS011;7711;46.634;14.318;2022-12-07T00:16:46;10.97;;;6.77;;
15216;SDS011;7711;46.634;14.318;2022-12-07T00:19:16;7.07;;;5.50;;
15216;SDS011;7711;46.634;14.318;2022-12-07T00:21:43;8.47;;;5.87;;
15216;SDS011;7711;46.634;14.318;2022-12-07T00:24:10;8.37;;;5.87;;
15216;SDS011;7711;46.634;14.318;2022-12-07T00:26:39;7.93;;;5.90;;
15216;SDS011;7711;46.634;14.318;2022-12-07T00:29:07;7.17;;;5.83;;
15216;SDS011;7711;46.634;14.318;2022-12-07T00:31:40;8.17;;;5.87;;
15216;SDS011;7711;46.634;14.318;2022-12-07T00:34:11;8.70;;;6.00;;
15216;SDS011;7711;46.634;14.318;2022-12-07T00:36:40;11.90;;;6.50;;
15216;SDS011;7711;46.634;14.318;2022-12-07T00:39:07;8.33;;;5.93;;
15216;SDS011;7711;46.634;14.318;2022-12-07T00:41:34;9.03;;;6.30;;
15216;SDS011;7711;46.634;14.318;2022-12-07T00:44:01;8.10;;;5.60;;
15216;SDS011;7711;46.634;14.318;2022-12-07T00:46:28;8.73;;;5.77;;
15216;SDS011;7711;46.634;14.318;2022-12-07T00:48:57;7.33;;;5.77;;
15216;SDS011;7711;46.634;14.318;2022-12-07T00:51:24;10.93;;;6.73;;
15216;SDS011;7711;46.634;14.318;2022-12-07T00:53:52;8.30;;;5.87;;
15216;SDS011;7711;46.634;14.318;2022-12-07T00:56:20;8.53;;;6.17;;
15216;SDS011;7711;46.634;14.318;2022-12-07T00:58:52;8.87;;;6.20;;
15216;SDS011;7711;46.634;14.318;2022-12-07T01:01:20;8.73;;;6.03;;
15216;SDS011;7711;46.634;14.318;2022-12-07T01:03:48;8.30;;;5.93;;
15216;SDS011;7711;46.634;14.318;2022-12-07T01:06:17;5.80;;;4.90;;
15216;SDS011;7711;46.634;14.318;2022-12-07T01:08:45;9.07;;;6.47;;
15216;SDS011;7711;46.634;14.318;2022-12-07T01:11:12;8.87;;;6.37;;
15216;SDS011;7711;46.634;14.318;2022-12-07T01:13:42;9.67;;;6.33;;
15216;SDS011;7711;46.634;14.318;2022-12-07T01:16:10;8.67;;;6.30;;
15216;SDS011;7711;46.634;14.318;2022-12-07T01:18:39;9.53;;;5.93;;
15216;SDS011;7711;46.634;14.318;2022-12-07T01:21:08;7.43;;;6.00;;
15216;SDS011;7711;46.634;14.318;2022-12-07T01:23:38;7.80;;;5.83;;
15216;SDS011;7711;46.634;14.318;2022-12-07T01:26:07;9.37;;;6.07;;
15216;SDS011;7711;46.634;14.318;2022-12-07T01:28:37;8.73;;;6.10;;
15216;SDS011;7711;46.634;14.318;2022-12-07T01:31:05;10.20;;;6.57;;
15216;SDS011;7711;46.634;14.318;2022-12-07T01:33:34;8.50;;;6.17;;
15216;SDS011;7711;46.634;14.318;2022-12-07T01:36:02;7.17;;;5.63;;
15216;SDS011;7711;46.634;14.318;2022-12-07T01:38:32;9.47;;;6.37;;
15216;SDS011;7711;46.634;14.318;2022-12-07T01:41:01;9.33;;;6.27;;
15216;SDS011;7711;46.634;14.318;2022-12-07T01:43:30;9.27;;;6.50;;
15216;SDS011;7711;46.634;14.318;2022-12-07T01:45:58;9.00;;;5.73;;
15216;SDS011;7711;46.634;14.318;2022-12-07T01:48:27;8.53;;;6.60;;
15216;SDS011;7711;46.634;14.318;2022-12-07T01:50:59;10.57;;;6.47;;
15216;SDS011;7711;46.634;14.318;2022-12-07T01:53:30;9.33;;;6.27;;
15216;SDS011;7711;46.634;14.318;2022-12-07T01:56:02;10.53;;;6.47;;
15216;SDS011;7711;46.634;14.318;2022-12-07T01:58:30;8.57;;;6.37;;
15216;SDS011;7711;46.634;14.318;2022-12-07T02:00:58;12.10;;;6.50;;
15216;SDS011;7711;46.634;14.318;2022-12-07T02:03:26;11.57;;;7.13;;
15216;SDS011;7711;46.634;14.318;2022-12-07T02:05:57;12.13;;;6.93;;
15216;SDS011;7711;46.634;14.318;2022-12-07T02:08:26;9.87;;;6.93;;
15216;SDS011;7711;46.634;14.318;2022-12-07T02:10:53;11.10;;;6.80;;
15216;SDS011;7711;46.634;14.318;2022-12-07T02:13:22;11.40;;;6.63;;
15216;SDS011;7711;46.634;14.318;2022-12-07T02:15:56;14.33;;;6.60;;
15216;SDS011;7711;46.634;14.318;2022-12-07T02:18:38;12.53;;;6.90;;
15216;SDS011;7711;46.634;14.318;2022-12-07T02:21:20;10.40;;;7.23;;
15216;SDS011;7711;46.634;14.318;2022-12-07T02:30:06;9.70;;;6.97;;
15216;SDS011;7711;46.634;14.318;2022-12-07T02:32:40;13.13;;;7.70;;
15216;SDS011;7711;46.634;14.318;2022-12-07T02:35:13;13.20;;;8.03;;
15216;SDS011;7711;46.634;14.318;2022-12-07T02:37:48;11.47;;;8.03;;
15216;SDS011;7711;46.634;14.318;2022-12-07T02:40:22;11.37;;;7.33;;
15216;SDS011;7711;46.634;14.318;2022-12-07T02:42:56;12.67;;;7.93;;
15216;SDS011;7711;46.634;14.318;2022-12-07T02:45:29;12.97;;;7.63;;
15216;SDS011;7711;46.634;14.318;2022-12-07T02:47:58;11.77;;;7.57;;
15216;SDS011;7711;46.634;14.318;2022-12-07T02:50:27;11.13;;;7.67;;
15216;SDS011;7711;46.634;14.318;2022-12-07T02:52:54;11.13;;;7.57;;
15216;SDS011;7711;46.634;14.318;2022-12-07T02:55:23;11.47;;;7.70;;
15216;SDS011;7711;46.634;14.318;2022-12-07T03:00:54;12.60;;;8.33;;
15216;SDS011;7711;46.634;14.318;2022-12-07T03:03:28;11.20;;;7.50;;
15216;SDS011;7711;46.634;14.318;2022-12-07T03:06:01;11.17;;;7.30;;
15216;SDS011;7711;46.634;14.318;2022-12-07T03:08:38;11.90;;;7.30;;
15216;SDS011;7711;46.634;14.318;2022-12-07T03:11:12;11.07;;;7.43;;
15216;SDS011;7711;46.634;14.318;2022-12-07T03:13:41;11.97;;;7.83;;
15216;SDS011;7711;46.634;14.318;2022-12-07T03:16:16;10.97;;;6.93;;
15216;SDS011;7711;46.634;14.318;2022-12-07T03:18:47;11.27;;;7.43;;
15216;SDS011;7711;46.634;14.318;2022-12-07T03:21:17;11.50;;;7.00;;
15216;SDS011;7711;46.634;14.318;2022-12-07T03:23:48;14.13;;;7.40;;
15216;SDS011;7711;46.634;14.318;2022-12-07T03:26:18;12.20;;;7.03;;
15216;SDS011;7711;46.634;14.318;2022-12-07T03:28:48;10.13;;;7.20;;
15216;SDS011;7711;46.634;14.318;2022-12-07T03:31:21;9.67;;;7.00;;
15216;SDS011;7711;46.634;14.318;2022-12-07T03:33:52;11.67;;;7.50;;
15216;SDS011;7711;46.634;14.318;2022-12-07T03:36:28;10.93;;;7.53;;
15216;SDS011;7711;46.634;14.318;2022-12-07T03:39:00;14.17;;;7.80;;
15216;SDS011;7711;46.634;14.318;2022-12-07T03:41:35;9.67;;;6.83;;
15216;SDS011;7711;46.634;14.318;2022-12-07T03:44:04;13.97;;;7.60;;
15216;SDS011;7711;46.634;14.318;2022-12-07T03:46:36;10.63;;;6.87;;
15216;SDS011;7711;46.634;14.318;2022-12-07T03:49:11;11.13;;;7.50;;
15216;SDS011;7711;46.634;14.318;2022-12-07T03:51:45;10.27;;;6.93;;
15216;SDS011;7711;46.634;14.318;2022-12-07T03:54:19;9.97;;;7.50;;
15216;SDS011;7711;46.634;14.318;2022-12-07T03:56:51;14.73;;;9.90;;
15216;SDS011;7711;46.634;14.318;2022-12-07T03:59:19;12.33;;;9.47;;
15216;SDS011;7711;46.634;14.318;2022-12-07T04:01:53;11.33;;;7.73;;
15216;SDS011;7711;46.634;14.318;2022-12-07T04:04:21;11.20;;;7.53;;
15216;SDS011;7711;46.634;14.318;2022-12-07T04:06:50;10.23;;;7.47;;
15216;SDS011;7711;46.634;14.318;2022-12-07T04:09:17;8.33;;;6.83;;
15216;SDS011;7711;46.634;14.318;2022-12-07T04:11:45;10.03;;;7.10;;
15216;SDS011;7711;46.634;14.318;2022-12-07T04:14:12;7.43;;;6.47;;
15216;SDS011;7711;46.634;14.318;2022-12-07T04:16:46;7.83;;;6.30;;
15216;SDS011;7711;46.634;14.318;2022-12-07T04:19:16;7.43;;;5.37;;
15216;SDS011;7711;46.634;14.318;2022-12-07T04:21:45;5.60;;;5.10;;
15216;SDS011;7711;46.634;14.318;2022-12-07T04:24:13;6.23;;;5.00;;
15216;SDS011;7711;46.634;14.318;2022-12-07T04:26:41;4.83;;;4.33;;
15216;SDS011;7711;46.634;14.318;2022-12-07T04:29:11;5.40;;;4.63;;
15216;SDS011;7711;46.634;14.318;2022-12-07T04:31:39;5.40;;;4.67;;
15216;SDS011;7711;46.634;14.318;2022-12-07T04:34:07;5.20;;;4.70;;
15216;SDS011;7711;46.634;14.318;2022-12-07T04:36:36;6.60;;;5.23;;
15216;SDS011;7711;46.634;14.318;2022-12-07T04:39:04;6.53;;;5.10;;
15216;SDS011;7711;46.634;14.318;2022-12-07T04:41:33;6.77;;;5.83;;
15216;SDS011;7711;46.634;14.318;2022-12-07T04:44:00;8.73;;;6.00;;
15216;SDS011;7711;46.634;14.318;2022-12-07T04:46:32;7.60;;;6.20;;
15216;SDS011;7711;46.634;14.318;2022-12-07T04:48:59;5.77;;;4.90;;
15216;SDS011;7711;46.634;14.318;2022-12-07T04:51:27;9.10;;;6.60;;
15216;SDS011;7711;46.634;14.318;2022-12-07T04:53:56;8.70;;;6.83;;
15216;SDS011;7711;46.634;14.318;2022-12-07T04:56:23;6.73;;;5.57;;
15216;SDS011;7711;46.634;14.318;2022-12-07T04:58:51;5.20;;;4.70;;
15216;SDS011;7711;46.634;14.318;2022-12-07T05:01:22;6.37;;;4.73;;
15216;SDS011;7711;46.634;14.318;2022-12-07T05:03:49;5.07;;;4.20;;
15216;SDS011;7711;46.634;14.318;2022-12-07T05:06:16;4.80;;;4.23;;
15216;SDS011;7711;46.634;14.318;2022-12-07T05:08:44;5.10;;;4.60;;
15216;SDS011;7711;46.634;14.318;2022-12-07T05:11:13;4.47;;;4.00;;
15216;SDS011;7711;46.634;14.318;2022-12-07T05:14:01;4.60;;;4.20;;
15216;SDS011;7711;46.634;14.318;2022-12-07T05:16:29;5.30;;;4.67;;
15216;SDS011;7711;46.634;14.318;2022-12-07T05:18:56;5.70;;;4.57;;
15216;SDS011;7711;46.634;14.318;2022-12-07T05:21:23;7.97;;;4.70;;
15216;SDS011;7711;46.634;14.318;2022-12-07T05:23:50;6.27;;;4.63;;
15216;SDS011;7711;46.634;14.318;2022-12-07T05:26:19;4.70;;;4.20;;
15216;SDS011;7711;46.634;14.318;2022-12-07T05:28:49;5.77;;;3.70;;
15216;SDS011;7711;46.634;14.318;2022-12-07T05:31:17;4.40;;;4.00;;
15216;SDS011;7711;46.634;14.318;2022-12-07T05:33:44;5.27;;;4.20;;
15216;SDS011;7711;46.634;14.318;2022-12-07T05:36:11;4.73;;;3.97;;
15216;SDS011;7711;46.634;14.318;2022-12-07T05:38:38;4.77;;;4.27;;
15216;SDS011;7711;46.634;14.318;2022-12-07T05:41:06;4.40;;;4.00;;
15216;SDS011;7711;46.634;14.318;2022-12-07T05:43:56;4.50;;;4.10;;
15216;SDS011;7711;46.634;14.318;2022-12-07T05:46:23;5.00;;;4.53;;
15216;SDS011;7711;46.634;14.318;2022-12-07T05:48:50;5.30;;;4.80;;
15216;SDS011;7711;46.634;14.318;2022-12-07T05:51:17;5.83;;;4.70;;
15216;SDS011;7711;46.634;14.318;2022-12-07T05:53:44;4.57;;;4.17;;
15216;SDS011;7711;46.634;14.318;2022-12-07T05:56:12;6.03;;;5.30;;
15216;SDS011;7711;46.634;14.318;2022-12-07T05:58:39;6.43;;;5.13;;
15216;SDS011;7711;46.634;14.318;2022-12-07T06:01:25;7.90;;;5.63;;
15216;SDS011;7711;46.634;14.318;2022-12-07T06:03:52;4.90;;;4.40;;
15216;SDS011;7711;46.634;14.318;2022-12-07T06:06:19;6.70;;;5.20;;
15216;SDS011;7711;46.634;14.318;2022-12-07T06:08:46;5.60;;;4.93;;
15216;SDS011;7711;46.634;14.318;2022-12-07T06:11:13;4.87;;;4.40;;
15216;SDS011;7711;46.634;14.318;2022-12-07T06:13:54;4.80;;;4.27;;
15216;SDS011;7711;46.634;14.318;2022-12-07T06:16:21;8.37;;;5.23;;
15216;SDS011;7711;46.634;14.318;2022-12-07T06:18:49;13.53;;;7.90;;
15216;SDS011;7711;46.634;14.318;2022-12-07T06:21:17;14.17;;;7.43;;
15216;SDS011;7711;46.634;14.318;2022-12-07T06:23:44;13.23;;;7.63;;
15216;SDS011;7711;46.634;14.318;2022-12-07T06:26:12;12.53;;;7.37;;
15216;SDS011;7711;46.634;14.318;2022-12-07T06:28:40;8.90;;;5.90;;
15216;SDS011;7711;46.634;14.318;2022-12-07T06:31:07;6.30;;;4.40;;
15216;SDS011;7711;46.634;14.318;2022-12-07T06:33:34;6.10;;;5.17;;
15216;SDS011;7711;46.634;14.318;2022-12-07T06:36:03;5.53;;;5.00;;
15216;SDS011;7711;46.634;14.318;2022-12-07T06:38:30;7.53;;;5.50;;
15216;SDS011;7711;46.634;14.318;2022-12-07T06:40:57;6.00;;;5.40;;
15216;SDS011;7711;46.634;14.318;2022-12-07T06:43:24;6.40;;;5.57;;
15216;SDS011;7711;46.634;14.318;2022-12-07T06:45:52;6.03;;;5.43;;
15216;SDS011;7711;46.634;14.318;2022-12-07T06:48:19;5.90;;;5.30;;
15216;SDS011;7711;46.634;14.318;2022-12-07T06:50:47;5.40;;;4.90;;
15216;SDS011;7711;46.634;14.318;2022-12-07T06:53:16;5.07;;;4.57;;
15216;SDS011;7711;46.634;14.318;2022-12-07T06:55:43;5.00;;;4.50;;
15216;SDS011;7711;46.634;14.318;2022-12-07T06:58:10;5.43;;;4.40;;
15216;SDS011;7711;46.634;14.318;2022-12-07T07:00:37;5.70;;;4.53;;
15216;SDS011;7711;46.634;14.318;2022-12-07T07:03:04;5.30;;;4.73;;
15216;SDS011;7711;46.634;14.318;2022-12-07T07:05:31;5.57;;;4.77;;
15216;SDS011;7711;46.634;14.318;2022-12-07T07:07:58;7.00;;;5.17;;
15216;SDS011;7711;46.634;14.318;2022-12-07T07:10:26;4.73;;;4.30;;
15216;SDS011;7711;46.634;14.318;2022-12-07T07:12:53;4.60;;;3.60;;
15216;SDS011;7711;46.634;14.318;2022-12-07T07:15:20;4.03;;;3.40;;
15216;SDS011;7711;46.634;14.318;2022-12-07T07:17:47;4.03;;;3.60;;
15216;SDS011;7711;46.634;14.318;2022-12-07T07:20:15;3.47;;;3.10;;
15216;SDS011;7711;46.634;14.318;2022-12-07T07:22:42;4.47;;;3.50;;
15216;SDS011;7711;46.634;14.318;2022-12-07T07:25:09;4.10;;;3.53;;
15216;SDS011;7711;46.634;14.318;2022-12-07T07:27:37;4.53;;;4.07;;
15216;SDS011;7711;46.634;14.318;2022-12-07T07:30:05;4.30;;;3.83;;
15216;SDS011;7711;46.634;14.318;2022-12-07T07:32:33;4.97;;;4.20;;
15216;SDS011;7711;46.634;14.318;2022-12-07T07:35:00;5.13;;;4.20;;
15216;SDS011;7711;46.634;14.318;2022-12-07T07:37:27;4.13;;;3.73;;
15216;SDS011;7711;46.634;14.318;2022-12-07T07:39:54;4.43;;;4.03;;
15216;SDS011;7711;46.634;14.318;2022-12-07T07:42:21;6.37;;;5.00;;
15216;SDS011;7711;46.634;14.318;2022-12-07T07:44:49;6.83;;;4.80;;
15216;SDS011;7711;46.634;14.318;2022-12-07T07:47:16;7.07;;;5.57;;
15216;SDS011;7711;46.634;14.318;2022-12-07T07:49:43;4.37;;;3.50;;
15216;SDS011;7711;46.634;14.318;2022-12-07T07:52:10;5.53;;;4.17;;
15216;SDS011;7711;46.634;14.318;2022-12-07T07:54:37;4.97;;;4.47;;
15216;SDS011;7711;46.634;14.318;2022-12-07T07:57:04;4.30;;;3.77;;
15216;SDS011;7711;46.634;14.318;2022-12-07T07:59:31;3.90;;;3.50;;
15216;SDS011;7711;46.634;14.318;2022-12-07T08:02:00;5.67;;;4.13;;
15216;SDS011;7711;46.634;14.318;2022-12-07T08:04:27;3.60;;;3.30;;
15216;SDS011;7711;46.634;14.318;2022-12-07T08:06:54;4.33;;;3.77;;
15216;SDS011;7711;46.634;14.318;2022-12-07T08:09:22;4.43;;;3.97;;
15216;SDS011;7711;46.634;14.318;2022-12-07T08:11:49;6.47;;;3.80;;
15216;SDS011;7711;46.634;14.318;2022-12-07T08:14:16;4.50;;;3.70;;
15216;SDS011;7711;46.634;14.318;2022-12-07T08:16:43;4.30;;;3.40;;
15216;SDS011;7711;46.634;14.318;2022-12-07T08:19:11;3.73;;;3.20;;
15216;SDS011;7711;46.634;14.318;2022-12-07T08:21:38;5.17;;;3.20;;
15216;SDS011;7711;46.634;14.318;2022-12-07T08:24:06;4.00;;;3.60;;
15216;SDS011;7711;46.634;14.318;2022-12-07T08:26:33;4.83;;;3.60;;
15216;SDS011;7711;46.634;14.318;2022-12-07T08:29:00;4.83;;;3.80;;
15216;SDS011;7711;46.634;14.318;2022-12-07T08:31:27;4.07;;;3.67;;
15216;SDS011;7711;46.634;14.318;2022-12-07T08:33:54;5.10;;;3.60;;
15216;SDS011;7711;46.634;14.318;2022-12-07T08:36:23;4.83;;;3.60;;
15216;SDS011;7711;46.634;14.318;2022-12-07T08:38:51;4.83;;;3.60;;
15216;SDS011;7711;46.634;14.318;2022-12-07T08:41:18;3.90;;;3.50;;
15216;SDS011;7711;46.634;14.318;2022-12-07T08:43:45;3.87;;;3.40;;
15216;SDS011;7711;46.634;14.318;2022-12-07T08:46:13;4.50;;;3.13;;
15216;SDS011;7711;46.634;14.318;2022-12-07T08:48:45;3.60;;;3.17;;
15216;SDS011;7711;46.634;14.318;2022-12-07T08:51:16;3.60;;;3.17;;
15216;SDS011;7711;46.634;14.318;2022-12-07T08:53:44;3.83;;;3.40;;
15216;SDS011;7711;46.634;14.318;2022-12-07T08:56:12;3.87;;;3.07;;
15216;SDS011;7711;46.634;14.318;2022-12-07T08:58:39;3.70;;;3.40;;
15216;SDS011;7711;46.634;14.318;2022-12-07T09:01:07;3.60;;;3.30;;
15216;SDS011;7711;46.634;14.318;2022-12-07T09:03:34;3.33;;;3.03;;
15216;SDS011;7711;46.634;14.318;2022-12-07T09:06:01;3.97;;;3.30;;
15216;SDS011;7711;46.634;14.318;2022-12-07T09:08:29;3.43;;;3.13;;
15216;SDS011;7711;46.634;14.318;2022-12-07T09:11:00;5.10;;;3.57;;
15216;SDS011;7711;46.634;14.318;2022-12-07T09:13:27;3.80;;;3.30;;
15216;SDS011;7711;46.634;14.318;2022-12-07T09:15:54;3.40;;;3.10;;
15216;SDS011;7711;46.634;14.318;2022-12-07T09:18:22;3.77;;;3.10;;
15216;SDS011;7711;46.634;14.318;2022-12-07T09:20:50;5.17;;;3.20;;
15216;SDS011;7711;46.634;14.318;2022-12-07T09:23:17;4.13;;;3.60;;
15216;SDS011;7711;46.634;14.318;2022-12-07T09:25:44;3.30;;;3.00;;
15216;SDS011;7711;46.634;14.318;2022-12-07T09:28:12;3.33;;;3.03;;
15216;SDS011;7711;46.634;14.318;2022-12-07T09:30:39;3.40;;;3.10;;
15216;SDS011;7711;46.634;14.318;2022-12-07T09:33:12;3.57;;;3.23;;
15216;SDS011;7711;46.634;14.318;2022-12-07T09:35:43;3.30;;;3.00;;
15216;SDS011;7711;46.634;14.318;2022-12-07T09:38:11;3.43;;;3.03;;
15216;SDS011;7711;46.634;14.318;2022-12-07T09:40:38;4.07;;;3.67;;
15216;SDS011;7711;46.634;14.318;2022-12-07T09:43:12;3.40;;;3.10;;
15216;SDS011;7711;46.634;14.318;2022-12-07T09:45:41;5.30;;;3.60;;
15216;SDS011;7711;46.634;14.318;2022-12-07T09:48:12;4.23;;;3.37;;
15216;SDS011;7711;46.634;14.318;2022-12-07T09:50:44;4.07;;;3.40;;
15216;SDS011;7711;46.634;14.318;2022-12-07T09:53:12;5.13;;;4.07;;
15216;SDS011;7711;46.634;14.318;2022-12-07T09:55:46;4.17;;;3.77;;
15216;SDS011;7711;46.634;14.318;2022-12-07T09:58:17;5.17;;;4.10;;
15216;SDS011;7711;46.634;14.318;2022-12-07T10:00:47;3.77;;;3.07;;
15216;SDS011;7711;46.634;14.318;2022-12-07T10:03:15;3.70;;;3.20;;
15216;SDS011;7711;46.634;14.318;2022-12-07T10:05:42;6.00;;;3.47;;
15216;SDS011;7711;46.634;14.318;2022-12-07T10:08:13;4.17;;;3.60;;
15216;SDS011;7711;46.634;14.318;2022-12-07T10:10:42;5.13;;;3.93;;
15216;SDS011;7711;46.634;14.318;2022-12-07T10:13:10;4.17;;;3.77;;
15216;SDS011;7711;46.634;14.318;2022-12-07T10:15:44;4.30;;;3.50;;
15216;SDS011;7711;46.634;14.318;2022-12-07T10:18:17;4.37;;;3.30;;
15216;SDS011;7711;46.634;14.318;2022-12-07T10:21:02;3.53;;;3.13;;
15216;SDS011;7711;46.634;14.318;2022-12-07T10:23:34;6.87;;;3.27;;
15216;SDS011;7711;46.634;14.318;2022-12-07T10:26:15;3.60;;;3.30;;
15216;SDS011;7711;46.634;14.318;2022-12-07T10:28:46;4.67;;;3.40;;
15216;SDS011;7711;46.634;14.318;2022-12-07T10:31:17;4.07;;;3.50;;
15216;SDS011;7711;46.634;14.318;2022-12-07T10:33:50;3.60;;;3.30;;
15216;SDS011;7711;46.634;14.318;2022-12-07T10:36:19;4.03;;;3.63;;
15216;SDS011;7711;46.634;14.318;2022-12-07T10:38:49;4.83;;;3.60;;
15216;SDS011;7711;46.634;14.318;2022-12-07T10:41:19;4.33;;;3.27;;
15216;SDS011;7711;46.634;14.318;2022-12-07T10:43:47;3.73;;;3.30;;
15216;SDS011;7711;46.634;14.318;2022-12-07T10:49:36;4.40;;;3.80;;
15216;SDS011;7711;46.634;14.318;2022-12-07T10:52:39;4.90;;;4.00;;
15216;SDS011;7711;46.634;14.318;2022-12-07T10:55:26;4.70;;;3.73;;
15216;SDS011;7711;46.634;14.318;2022-12-07T10:58:13;6.07;;;3.70;;
15216;SDS011;7711;46.634;14.318;2022-12-07T11:00:53;4.13;;;3.73;;
15216;SDS011;7711;46.634;14.318;2022-12-07T11:03:32;4.83;;;3.90;;
15216;SDS011;7711;46.634;14.318;2022-12-07T11:06:16;4.93;;;4.17;;
15216;SDS011;7711;46.634;14.318;2022-12-07T11:09:02;5.20;;;4.10;;
15216;SDS011;7711;46.634;14.318;2022-12-07T11:11:43;5.37;;;4.00;;
15216;SDS011;7711;46.634;14.318;2022-12-07T11:14:18;5.53;;;3.93;;
15216;SDS011;7711;46.634;14.318;2022-12-07T11:16:53;8.10;;;6.10;;
15216;SDS011;7711;46.634;14.318;2022-12-07T11:19:28;5.43;;;3.97;;
15216;SDS011;7711;46.634;14.318;2022-12-07T11:22:09;3.97;;;3.57;;
15216;SDS011;7711;46.634;14.318;2022-12-07T11:24:44;4.03;;;3.63;;
15216;SDS011;7711;46.634;14.318;2022-12-07T11:27:19;4.30;;;3.90;;
15216;SDS011;7711;46.634;14.318;2022-12-07T11:30:00;4.03;;;3.53;;
15216;SDS011;7711;46.634;14.318;2022-12-07T11:32:45;3.97;;;3.57;;
15216;SDS011;7711;46.634;14.318;2022-12-07T11:35:21;3.83;;;3.43;;
15216;SDS011;7711;46.634;14.318;2022-12-07T11:38:01;5.37;;;4.87;;
15216;SDS011;7711;46.634;14.318;2022-12-07T11:40:37;4.23;;;3.67;;
15216;SDS011;7711;46.634;14.318;2022-12-07T11:43:09;4.00;;;3.33;;
15216;SDS011;7711;46.634;14.318;2022-12-07T11:45:42;4.57;;;3.60;;
15216;SDS011;7711;46.634;14.318;2022-12-07T11:48:12;9.80;;;3.87;;
15216;SDS011;7711;46.634;14.318;2022-12-07T11:50:45;4.87;;;3.50;;
15216;SDS011;7711;46.634;14.318;2022-12-07T11:53:18;4.87;;;3.40;;
15216;SDS011;7711;46.634;14.318;2022-12-07T11:55:49;4.40;;;4.00;;
15216;SDS011;7711;46.634;14.318;2022-12-07T11:58:23;4.90;;;4.10;;
15216;SDS011;7711;46.634;14.318;2022-12-07T12:01:08;4.40;;;4.00;;
15216;SDS011;7711;46.634;14.318;2022-12-07T12:03:45;4.27;;;3.87;;
15216;SDS011;7711;46.634;14.318;2022-12-07T12:06:14;6.27;;;3.90;;
15216;SDS011;7711;46.634;14.318;2022-12-07T12:08:43;4.50;;;4.00;;
15216;SDS011;7711;46.634;14.318;2022-12-07T12:11:18;5.10;;;4.03;;
15216;SDS011;7711;46.634;14.318;2022-12-07T12:16:52;7.03;;;3.93;;
15216;SDS011;7711;46.634;14.318;2022-12-07T12:19:32;4.10;;;3.70;;
15216;SDS011;7711;46.634;14.318;2022-12-07T12:22:04;4.33;;;3.60;;
15216;SDS011;7711;46.634;14.318;2022-12-07T12:24:39;4.27;;;3.60;;
15216;SDS011;7711;46.634;14.318;2022-12-07T12:27:09;4.40;;;4.00;;
15216;SDS011;7711;46.634;14.318;2022-12-07T12:29:44;4.67;;;3.90;;
15216;SDS011;7711;46.634;14.318;2022-12-07T12:32:18;4.20;;;3.80;;
15216;SDS011;7711;46.634;14.318;2022-12-07T12:34:58;4.17;;;3.73;;
15216;SDS011;7711;46.634;14.318;2022-12-07T12:37:43;4.57;;;4.00;;
15216;SDS011;7711;46.634;14.318;2022-12-07T12:55:17;5.33;;;4.03;;
15216;SDS011;7711;46.634;14.318;2022-12-07T13:04:14;5.13;;;4.13;;
15216;SDS011;7711;46.634;14.318;2022-12-07T13:06:47;6.00;;;4.30;;
15216;SDS011;7711;46.634;14.318;2022-12-07T13:09:19;4.70;;;4.10;;
15216;SDS011;7711;46.634;14.318;2022-12-07T13:11:49;6.13;;;4.30;;
15216;SDS011;7711;46.634;14.318;2022-12-07T13:23:31;5.97;;;4.47;;
15216;SDS011;7711;46.634;14.318;2022-12-07T13:26:06;6.57;;;4.80;;
15216;SDS011;7711;46.634;14.318;2022-12-07T13:28:40;5.40;;;4.37;;
15216;SDS011;7711;46.634;14.318;2022-12-07T13:31:18;5.23;;;4.67;;
15216;SDS011;7711;46.634;14.318;2022-12-07T13:34:02;6.73;;;5.07;;
15216;SDS011;7711;46.634;14.318;2022-12-07T13:36:31;8.17;;;5.87;;
15216;SDS011;7711;46.634;14.318;2022-12-07T13:39:10;9.27;;;5.73;;
15216;SDS011;7711;46.634;14.318;2022-12-07T13:41:44;6.00;;;5.00;;
15216;SDS011;7711;46.634;14.318;2022-12-07T13:44:15;9.17;;;5.57;;
15216;SDS011;7711;46.634;14.318;2022-12-07T13:46:46;6.30;;;5.00;;
15216;SDS011;7711;46.634;14.318;2022-12-07T13:49:21;5.77;;;5.10;;
15216;SDS011;7711;46.634;14.318;2022-12-07T13:51:50;6.83;;;4.63;;
15216;SDS011;7711;46.634;14.318;2022-12-07T13:54:19;6.17;;;5.30;;
15216;SDS011;7711;46.634;14.318;2022-12-07T13:56:48;7.43;;;5.70;;
15216;SDS011;7711;46.634;14.318;2022-12-07T13:59:17;7.43;;;5.67;;
15216;SDS011;7711;46.634;14.318;2022-12-07T14:01:49;9.03;;;5.13;;
15216;SDS011;7711;46.634;14.318;2022-12-07T14:04:20;7.57;;;4.53;;
15216;SDS011;7711;46.634;14.318;2022-12-07T14:06:57;5.53;;;4.93;;
15216;SDS011;7711;46.634;14.318;2022-12-07T14:09:26;6.17;;;5.20;;
15216;SDS011;7711;46.634;14.318;2022-12-07T14:11:55;5.73;;;4.70;;
15216;SDS011;7711;46.634;14.318;2022-12-07T14:14:24;4.73;;;3.93;;
15216;SDS011;7711;46.634;14.318;2022-12-07T14:16:58;6.90;;;4.63;;
15216;SDS011;7711;46.634;14.318;2022-12-07T14:19:48;6.43;;;4.70;;
15216;SDS011;7711;46.634;14.318;2022-12-07T14:22:27;6.70;;;5.20;;
15216;SDS011;7711;46.634;14.318;2022-12-07T14:25:00;7.67;;;6.60;;
15216;SDS011;7711;46.634;14.318;2022-12-07T14:27:48;6.00;;;4.23;;
15216;SDS011;7711;46.634;14.318;2022-12-07T14:30:21;6.23;;;4.27;;
15216;SDS011;7711;46.634;14.318;2022-12-07T14:32:51;8.27;;;6.20;;
15216;SDS011;7711;46.634;14.318;2022-12-07T14:35:20;5.70;;;4.63;;
15216;SDS011;7711;46.634;14.318;2022-12-07T14:37:48;6.47;;;4.73;;
15216;SDS011;7711;46.634;14.318;2022-12-07T14:40:16;7.73;;;4.93;;
15216;SDS011;7711;46.634;14.318;2022-12-07T14:42:45;6.80;;;5.37;;
15216;SDS011;7711;46.634;14.318;2022-12-07T14:45:15;6.07;;;4.97;;
15216;SDS011;7711;46.634;14.318;2022-12-07T14:47:43;6.77;;;5.10;;
15216;SDS011;7711;46.634;14.318;2022-12-07T14:50:11;6.20;;;5.30;;
15216;SDS011;7711;46.634;14.318;2022-12-07T14:52:40;7.60;;;5.37;;
15216;SDS011;7711;46.634;14.318;2022-12-07T14:55:13;7.43;;;5.67;;
15216;SDS011;7711;46.634;14.318;2022-12-07T14:57:43;8.00;;;6.07;;
15216;SDS011;7711;46.634;14.318;2022-12-07T15:00:13;8.00;;;6.23;;
15216;SDS011;7711;46.634;14.318;2022-12-07T15:02:42;9.17;;;6.13;;
15216;SDS011;7711;46.634;14.318;2022-12-07T15:05:09;9.80;;;6.60;;
15216;SDS011;7711;46.634;14.318;2022-12-07T15:07:36;8.70;;;6.87;;
15216;SDS011;7711;46.634;14.318;2022-12-07T15:10:05;11.80;;;6.23;;
15216;SDS011;7711;46.634;14.318;2022-12-07T15:12:36;13.97;;;8.73;;
15216;SDS011;7711;46.634;14.318;2022-12-07T15:15:03;15.90;;;10.47;;
15216;SDS011;7711;46.634;14.318;2022-12-07T15:17:31;19.57;;;11.87;;
15216;SDS011;7711;46.634;14.318;2022-12-07T15:19:58;31.20;;;15.77;;
15216;SDS011;7711;46.634;14.318;2022-12-07T15:22:25;33.07;;;17.77;;
15216;SDS011;7711;46.634;14.318;2022-12-07T15:24:52;34.20;;;18.03;;
15216;SDS011;7711;46.634;14.318;2022-12-07T15:27:21;28.10;;;15.50;;
15216;SDS011;7711;46.634;14.318;2022-12-07T15:29:48;24.07;;;14.17;;
15216;SDS011;7711;46.634;14.318;2022-12-07T15:32:14;16.60;;;11.80;;
15216;SDS011;7711;46.634;14.318;2022-12-07T15:34:41;14.87;;;10.70;;
15216;SDS011;7711;46.634;14.318;2022-12-07T15:37:08;9.23;;;7.43;;
15216;SDS011;7711;46.634;14.318;2022-12-07T15:39:36;8.47;;;6.80;;
15216;SDS011;7711;46.634;14.318;2022-12-07T15:42:03;8.03;;;6.90;;
15216;SDS011;7711;46.634;14.318;2022-12-07T15:44:32;11.13;;;7.73;;
15216;SDS011;7711;46.634;14.318;2022-12-07T15:47:16;8.77;;;6.93;;
15216;SDS011;7711;46.634;14.318;2022-12-07T15:49:43;7.07;;;5.93;;
15216;SDS011;7711;46.634;14.318;2022-12-07T15:52:10;8.57;;;6.60;;